createdAt,value
2023-03-26T00:01:15.818Z,11.47
2023-03-26T00:04:22.045Z,11.37
2023-03-26T00:07:28.310Z,11.48
2023-03-26T00:10:33.852Z,11.35
2023-03-26T00:13:40.996Z,11.13
2023-03-26T00:16:47.868Z,11.14
2023-03-26T00:19:53.831Z,11.15
2023-03-26T00:23:02.137Z,11.20
2023-03-26T00:26:11.422Z,11.25
2023-03-26T00:29:17.297Z,11.03
2023-03-26T00:32:28.369Z,11.11
2023-03-26T00:35:37.407Z,11.10
2023-03-26T00:38:44.268Z,11.04
2023-03-26T00:41:54.843Z,11.03
2023-03-26T00:45:00.709Z,11.01
2023-03-26T00:48:06.247Z,10.91
2023-03-26T00:51:15.630Z,10.78
2023-03-26T00:54:21.649Z,10.71
2023-03-26T00:57:35.841Z,10.81
2023-03-26T01:00:57.720Z,10.92
2023-03-26T01:04:28.601Z,10.90
2023-03-26T01:07:35.462Z,10.78
2023-03-26T01:10:42.932Z,10.82
2023-03-26T01:13:56.665Z,10.68
2023-03-26T01:17:04.643Z,10.61
2023-03-26T01:20:20.578Z,10.69
2023-03-26T01:23:35.645Z,10.70
2023-03-26T01:26:59.510Z,10.74
2023-03-26T01:30:17.349Z,10.78
2023-03-26T01:33:34.399Z,10.60
2023-03-26T01:36:49.206Z,10.52
2023-03-26T01:39:58.451Z,10.59
2023-03-26T01:43:29.052Z,10.53
2023-03-26T01:46:38.483Z,10.57
2023-03-26T01:49:45.412Z,10.49
2023-03-26T01:52:51.020Z,10.47
2023-03-26T01:56:29.646Z,10.48
2023-03-26T01:59:47.961Z,10.29
2023-03-26T02:03:04.696Z,10.31
2023-03-26T02:06:37.909Z,10.26
2023-03-26T02:09:48.433Z,10.36
2023-03-26T02:12:54.565Z,10.20
2023-03-26T02:16:03.270Z,10.01
2023-03-26T02:19:16.117Z,9.95
2023-03-26T02:22:22.594Z,9.79
2023-03-26T02:25:28.625Z,9.91
2023-03-26T02:28:37.842Z,9.96
2023-03-26T02:31:43.635Z,9.93
2023-03-26T02:34:51.595Z,9.68
2023-03-26T02:37:57.574Z,9.81
2023-03-26T02:41:03.575Z,9.86
2023-03-26T02:44:23.698Z,9.84
2023-03-26T02:47:37.903Z,9.65
2023-03-26T02:51:04.631Z,9.70
2023-03-26T02:54:37.570Z,9.46
2023-03-26T02:58:03.831Z,9.49
2023-03-26T03:01:18.715Z,9.32
2023-03-26T03:04:32.588Z,9.39
2023-03-26T03:07:38.934Z,9.17
2023-03-26T03:11:03.637Z,9.17
2023-03-26T03:14:17.354Z,9.30
2023-03-26T03:17:22.842Z,9.33
2023-03-26T03:20:30.631Z,9.39
2023-03-26T03:23:36.745Z,9.31
2023-03-26T03:26:50.584Z,9.24
2023-03-26T03:30:12.871Z,9.32
2023-03-26T03:33:24.324Z,9.38
2023-03-26T03:36:30.658Z,9.53
2023-03-26T03:39:43.330Z,9.43
2023-03-26T03:42:51.248Z,9.43
2023-03-26T03:46:06.366Z,9.51
2023-03-26T03:49:41.650Z,9.47
2023-03-26T03:52:47.037Z,9.56
2023-03-26T03:55:58.026Z,9.65
2023-03-26T03:59:17.868Z,9.54
2023-03-26T04:02:30.637Z,9.68
2023-03-26T04:05:40.902Z,9.51
2023-03-26T04:08:47.004Z,9.63
2023-03-26T04:11:52.652Z,9.62
2023-03-26T04:15:24.214Z,9.45
2023-03-26T04:18:32.725Z,9.30
2023-03-26T04:21:45.490Z,9.26
2023-03-26T04:24:54.739Z,9.23
2023-03-26T04:28:06.948Z,9.46
2023-03-26T04:31:31.528Z,9.42
2023-03-26T04:34:39.097Z,9.31
2023-03-26T04:37:49.089Z,9.11
2023-03-26T04:41:12.855Z,9.10
2023-03-26T04:44:44.864Z,9.24
2023-03-26T04:47:52.307Z,9.23
2023-03-26T04:50:58.378Z,9.22
2023-03-26T04:54:03.474Z,9.26
2023-03-26T04:57:27.568Z,9.14
2023-03-26T05:00:43.622Z,9.02
2023-03-26T05:03:49.021Z,8.85
2023-03-26T05:06:59.794Z,8.88
2023-03-26T05:10:22.164Z,9.05
2023-03-26T05:13:35.773Z,9.01
2023-03-26T05:16:48.328Z,9.03
2023-03-26T05:19:53.968Z,8.89
2023-03-26T05:22:59.474Z,8.96
2023-03-26T05:26:10.302Z,8.85
2023-03-26T05:29:18.029Z,8.45
2023-03-26T05:32:31.458Z,8.07
2023-03-26T05:35:37.048Z,8.02
2023-03-26T05:38:49.974Z,7.90
2023-03-26T05:42:22.112Z,8.11
2023-03-26T05:45:41.463Z,8.15
2023-03-26T05:48:55.869Z,8.36
2023-03-26T05:52:01.562Z,8.36
2023-03-26T05:55:25.955Z,8.62
2023-03-26T05:59:01.397Z,8.65
2023-03-26T06:02:07.571Z,8.81
2023-03-26T06:05:37.753Z,8.92
2023-03-26T06:09:02.031Z,8.82
2023-03-26T06:12:11.149Z,9.03
2023-03-26T06:15:18.156Z,9.30
2023-03-26T06:18:56.358Z,9.45
2023-03-26T06:22:23.141Z,9.46
2023-03-26T06:25:50.056Z,9.34
2023-03-26T06:29:18.890Z,9.55
2023-03-26T06:32:40.642Z,9.82
2023-03-26T06:35:54.087Z,9.84
2023-03-26T06:38:59.492Z,9.86
2023-03-26T06:42:04.969Z,10.10
2023-03-26T06:45:40.084Z,10.36
2023-03-26T06:49:04.259Z,10.54
2023-03-26T06:52:32.108Z,10.69
2023-03-26T06:56:13.416Z,10.71
2023-03-26T06:59:28.446Z,10.79
2023-03-26T07:02:52.971Z,10.94
2023-03-26T07:06:17.504Z,11.02
2023-03-26T07:09:41.424Z,11.17
2023-03-26T07:13:05.584Z,11.23
2023-03-26T07:16:29.991Z,11.39
2023-03-26T07:19:46.930Z,11.64
2023-03-26T07:22:52.716Z,11.64
2023-03-26T07:26:49.204Z,11.80
2023-03-26T07:30:19.616Z,12.05
2023-03-26T07:33:48.970Z,12.19
2023-03-26T07:37:27.186Z,12.11
2023-03-26T07:41:03.284Z,12.08
2023-03-26T07:44:41.973Z,12.22
2023-03-26T07:48:20.464Z,12.40
2023-03-26T07:51:49.022Z,12.46
2023-03-26T07:55:16.272Z,12.53
2023-03-26T07:59:20.695Z,12.62
2023-03-26T08:02:56.843Z,12.57
2023-03-26T08:06:34.670Z,12.72
2023-03-26T08:10:23.854Z,12.92
2023-03-26T08:14:16.558Z,12.99
2023-03-26T08:17:38.248Z,13.11
2023-03-26T08:20:50.536Z,13.34
2023-03-26T08:24:19.112Z,13.48
2023-03-26T08:28:02.722Z,13.52
2023-03-26T08:31:12.055Z,13.67
2023-03-26T08:34:35.608Z,13.82
2023-03-26T08:37:41.515Z,13.99
2023-03-26T08:41:12.396Z,13.97
2023-03-26T08:44:35.692Z,13.88
2023-03-26T08:48:19.220Z,13.97
2023-03-26T08:51:50.900Z,14.25
2023-03-26T08:55:10.807Z,14.44
2023-03-26T08:58:38.284Z,14.31
2023-03-26T09:01:59.189Z,14.32
2023-03-26T09:05:31.494Z,14.17
2023-03-26T09:08:54.152Z,14.16
2023-03-26T09:12:33.789Z,14.42
2023-03-26T09:16:15.574Z,14.68
2023-03-26T09:19:26.753Z,14.74
2023-03-26T09:23:06.354Z,14.85
2023-03-26T09:26:28.275Z,15.00
2023-03-26T09:29:52.166Z,15.11
2023-03-26T09:33:21.984Z,15.21
2023-03-26T09:36:50.233Z,14.94
2023-03-26T09:40:14.551Z,15.00
2023-03-26T09:43:41.616Z,15.17
2023-03-26T09:46:52.953Z,15.11
2023-03-26T09:50:16.461Z,15.31
2023-03-26T09:53:40.672Z,15.37
2023-03-26T09:57:13.055Z,15.38
2023-03-26T10:00:17.893Z,15.60
2023-03-26T10:03:59.951Z,15.45
2023-03-26T10:07:30.621Z,15.93
2023-03-26T10:11:02.415Z,15.94
2023-03-26T10:14:17.970Z,15.92
2023-03-26T10:18:00.993Z,16.25
2023-03-26T10:21:33.936Z,16.08
2023-03-26T10:24:57.765Z,16.18
2023-03-26T10:28:49.529Z,16.40
2023-03-26T10:32:22.617Z,16.46
2023-03-26T10:36:00.124Z,16.36
2023-03-26T10:39:36.019Z,16.24
2023-03-26T10:42:55.260Z,16.15
2023-03-26T10:46:22.446Z,16.30
2023-03-26T10:49:40.249Z,16.40
2023-03-26T10:53:41.712Z,16.40
2023-03-26T10:56:51.797Z,16.18
2023-03-26T11:00:15.983Z,16.06
2023-03-26T11:03:44.199Z,15.87
2023-03-26T11:07:16.799Z,15.77
2023-03-26T11:10:55.683Z,16.03
2023-03-26T11:14:34.197Z,16.05
2023-03-26T11:17:46.744Z,16.39
2023-03-26T11:21:19.834Z,16.39
2023-03-26T11:24:58.641Z,16.54
2023-03-26T11:28:28.081Z,16.49
2023-03-26T11:31:54.958Z,16.30
2023-03-26T11:35:19.249Z,16.28
2023-03-26T11:38:48.524Z,16.44
2023-03-26T11:42:22.146Z,16.48
2023-03-26T11:45:32.248Z,16.45
2023-03-26T11:48:44.696Z,16.56
2023-03-26T11:51:50.503Z,16.35
2023-03-26T11:54:59.916Z,16.54
2023-03-26T11:58:12.590Z,16.48
2023-03-26T12:01:30.701Z,16.57
2023-03-26T12:04:41.963Z,16.77
2023-03-26T12:07:54.472Z,16.75
2023-03-26T12:11:11.051Z,17.01
2023-03-26T12:14:24.607Z,17.17
2023-03-26T12:17:36.073Z,16.92
2023-03-26T12:20:43.114Z,17.31
2023-03-26T12:24:05.077Z,17.52
2023-03-26T12:27:22.022Z,17.30
2023-03-26T12:30:31.417Z,17.78
2023-03-26T12:33:39.287Z,17.52
2023-03-26T12:36:55.929Z,17.47
2023-03-26T12:40:30.378Z,17.15
2023-03-26T12:44:50.880Z,16.94
2023-03-26T12:47:58.583Z,16.84
2023-03-26T12:51:43.507Z,16.78
2023-03-26T12:55:27.161Z,16.67
2023-03-26T12:59:05.655Z,16.71
2023-03-26T13:02:46.852Z,16.62
2023-03-26T13:06:19.605Z,16.51
2023-03-26T13:10:02.184Z,16.47
2023-03-26T13:13:28.707Z,16.47
2023-03-26T13:16:58.059Z,16.33
2023-03-26T13:20:12.641Z,16.30
2023-03-26T13:23:36.537Z,16.27
2023-03-26T13:26:50.050Z,16.35
2023-03-26T13:30:14.872Z,16.25
2023-03-26T13:33:39.422Z,16.19
2023-03-26T13:36:53.795Z,16.14
2023-03-26T13:40:22.558Z,16.14
2023-03-26T13:43:45.904Z,16.07
2023-03-26T13:47:03.148Z,16.03
2023-03-26T13:50:22.345Z,16.02
2023-03-26T13:53:58.700Z,16.00
2023-03-26T13:57:12.837Z,15.92
2023-03-26T14:00:33.283Z,15.90
2023-03-26T14:04:03.640Z,15.94
2023-03-26T14:07:26.607Z,15.86
2023-03-26T14:10:43.679Z,15.84
2023-03-26T14:14:04.419Z,15.77
2023-03-26T14:17:28.429Z,15.77
2023-03-26T14:20:51.770Z,15.74
2023-03-26T14:24:35.103Z,15.70
2023-03-26T14:28:04.900Z,15.67
2023-03-26T14:31:10.396Z,15.66
2023-03-26T14:34:42.939Z,15.65
2023-03-26T14:38:30.176Z,15.65
2023-03-26T14:42:01.692Z,15.65
2023-03-26T14:45:48.112Z,15.59
2023-03-26T14:49:05.558Z,15.65
2023-03-26T14:52:32.037Z,15.48
2023-03-26T14:55:58.068Z,15.37
2023-03-26T14:59:32.242Z,15.32
2023-03-26T15:03:11.314Z,15.28
2023-03-26T15:06:38.310Z,15.30
2023-03-26T15:10:28.105Z,15.11
2023-03-26T15:14:11.294Z,15.17
2023-03-26T15:17:44.082Z,14.98
2023-03-26T15:20:49.644Z,15.02
2023-03-26T15:24:43.594Z,14.62
2023-03-26T15:28:10.806Z,14.16
2023-03-26T15:31:53.392Z,13.81
2023-03-26T15:35:02.998Z,13.48
2023-03-26T15:38:31.825Z,13.57
2023-03-26T15:42:07.413Z,13.25
2023-03-26T15:45:35.673Z,13.35
2023-03-26T15:48:55.839Z,13.25
2023-03-26T15:52:08.464Z,13.27
2023-03-26T15:55:16.705Z,13.26
2023-03-26T15:58:28.899Z,13.16
2023-03-26T16:02:05.139Z,13.05
2023-03-26T16:05:23.354Z,12.99
2023-03-26T16:08:54.166Z,13.01
2023-03-26T16:12:04.301Z,12.50
2023-03-26T16:15:29.904Z,12.42
2023-03-26T16:18:37.357Z,12.42
2023-03-26T16:21:54.800Z,12.34
2023-03-26T16:25:30.669Z,11.88
2023-03-26T16:28:57.817Z,11.63
2023-03-26T16:32:29.170Z,11.32
2023-03-26T16:36:03.518Z,11.16
2023-03-26T16:39:11.855Z,11.06
2023-03-26T16:42:20.020Z,11.11
2023-03-26T16:45:37.443Z,11.02
2023-03-26T16:49:14.777Z,10.82
2023-03-26T16:52:34.983Z,11.00
2023-03-26T16:55:47.348Z,10.88
2023-03-26T16:59:00.611Z,10.72
2023-03-26T17:02:24.973Z,10.56
2023-03-26T17:05:36.905Z,10.45
2023-03-26T17:08:53.516Z,10.43
2023-03-26T17:12:01.727Z,10.59
2023-03-26T17:15:20.152Z,10.67
2023-03-26T17:18:26.053Z,10.68
2023-03-26T17:21:45.803Z,10.92
2023-03-26T17:25:24.881Z,10.91
2023-03-26T17:29:05.165Z,10.93
2023-03-26T17:32:15.394Z,10.83
2023-03-26T17:35:39.305Z,10.85
2023-03-26T17:38:47.497Z,11.07
2023-03-26T17:42:01.266Z,10.96
2023-03-26T17:45:17.940Z,10.85
2023-03-26T17:48:26.399Z,10.71
2023-03-26T17:51:59.706Z,10.77
2023-03-26T17:55:11.003Z,10.84
2023-03-26T17:58:39.778Z,10.80
2023-03-26T18:01:48.733Z,10.79
2023-03-26T18:04:55.963Z,10.81
2023-03-26T18:08:26.360Z,10.82
2023-03-26T18:11:43.447Z,10.64
2023-03-26T18:14:48.778Z,10.82
2023-03-26T18:18:07.997Z,10.91
2023-03-26T18:21:27.312Z,10.75
2023-03-26T18:24:37.986Z,10.89
2023-03-26T18:27:43.795Z,10.88
2023-03-26T18:30:49.662Z,10.80
2023-03-26T18:33:59.435Z,10.84
2023-03-26T18:37:19.795Z,10.79
2023-03-26T18:40:40.535Z,10.86
2023-03-26T18:43:46.161Z,10.53
2023-03-26T18:46:55.438Z,10.49
2023-03-26T18:50:01.141Z,10.49
2023-03-26T18:53:30.026Z,10.53
2023-03-26T18:56:37.563Z,10.45
2023-03-26T18:59:45.711Z,10.54
2023-03-26T19:03:07.464Z,10.69
2023-03-26T19:06:15.331Z,10.66
2023-03-26T19:09:31.030Z,10.65
2023-03-26T19:12:38.982Z,10.46
2023-03-26T19:15:46.910Z,10.50
2023-03-26T19:18:53.059Z,10.39
2023-03-26T19:21:59.622Z,10.32
2023-03-26T19:25:06.030Z,10.20
2023-03-26T19:28:19.035Z,9.95
2023-03-26T19:31:27.416Z,10.08
2023-03-26T19:34:38.754Z,10.15
2023-03-26T19:37:54.579Z,10.18
2023-03-26T19:41:00.087Z,10.13
2023-03-26T19:44:25.134Z,10.06
2023-03-26T19:47:49.968Z,10.14
2023-03-26T19:51:05.656Z,10.16
2023-03-26T19:54:17.351Z,10.26
2023-03-26T19:57:23.817Z,10.14
2023-03-26T20:00:29.251Z,10.31
2023-03-26T20:03:43.395Z,10.01
2023-03-26T20:06:49.698Z,9.90
2023-03-26T20:09:55.229Z,9.87
2023-03-26T20:13:01.355Z,10.03
2023-03-26T20:16:16.204Z,10.15
2023-03-26T20:19:25.380Z,10.09
2023-03-26T20:22:31.517Z,9.97
2023-03-26T20:25:46.647Z,9.88
2023-03-26T20:28:53.456Z,9.75
2023-03-26T20:31:59.428Z,9.63
2023-03-26T20:35:35.583Z,9.81
2023-03-26T20:38:44.129Z,9.97
2023-03-26T20:41:50.276Z,9.80
2023-03-26T20:44:56.792Z,9.64
2023-03-26T20:48:02.979Z,9.46
2023-03-26T20:51:13.002Z,9.64
2023-03-26T20:54:22.024Z,9.55
2023-03-26T20:57:27.574Z,9.60
2023-03-26T21:00:33.403Z,9.55
